Terminal Aerodrome Forecast
Issued by NWS

Home | Current Version | Previous Version | Text Only | Print | Product List | Glossary On
Versions: 1 2 3 4 5 6 7 8 9 10 11 12 13 14 15
000
FTUS46 KMTR 201128
TAFSNS
TAF
KSNS 201128Z 2012/2112 27009KT P6SM BKN010
     FM201400 28008KT P6SM BKN007
     FM201700 28007KT P6SM SKC
     FM201900 28012KT P6SM SKC
     FM210300 28008KT P6SM SCT010
     FM210800 28009KT P6SM BKN010=

USA.gov is the U.S. government's official web portal to all federal, state and local government web resources and services.